createdAt,value
2019-03-20T00:00:57.165Z,-0.15
2019-03-20T00:03:27.670Z,-0.27
2019-03-20T00:05:58.208Z,-0.30
2019-03-20T00:08:28.751Z,-0.29
2019-03-20T00:10:59.301Z,-0.31
2019-03-20T00:13:30.109Z,-0.26
2019-03-20T00:16:00.655Z,-0.27
2019-03-20T00:18:31.198Z,-0.32
2019-03-20T00:21:01.741Z,-0.31
2019-03-20T00:23:32.296Z,-0.26
2019-03-20T00:26:03.097Z,-0.32
2019-03-20T00:28:33.430Z,-0.45
2019-03-20T00:31:03.769Z,-0.45
2019-03-20T00:33:34.406Z,-0.53
2019-03-20T00:36:05.260Z,-0.53
2019-03-20T00:38:35.594Z,-0.47
2019-03-20T00:41:05.939Z,-0.36
2019-03-20T00:43:36.270Z,-0.29
2019-03-20T00:46:06.613Z,-0.22
2019-03-20T00:48:36.953Z,-0.22
2019-03-20T00:51:07.291Z,-0.22
2019-03-20T00:53:38.025Z,-0.26
2019-03-20T00:56:08.360Z,-0.29
2019-03-20T00:58:39.762Z,-0.31
2019-03-20T01:01:10.583Z,-0.37
2019-03-20T01:03:40.918Z,-0.42
2019-03-20T01:06:11.262Z,-0.53
2019-03-20T01:08:41.599Z,-0.53
2019-03-20T01:11:11.942Z,-0.50
2019-03-20T01:13:43.877Z,-0.64
2019-03-20T01:16:14.217Z,-0.63
2019-03-20T01:18:44.553Z,-0.61
2019-03-20T01:21:15.094Z,-0.63
2019-03-20T01:23:45.437Z,-0.72
2019-03-20T01:26:15.782Z,-0.72
2019-03-20T01:28:46.119Z,-0.74
2019-03-20T01:31:16.455Z,-0.74
2019-03-20T01:33:46.876Z,-0.69
2019-03-20T01:36:17.141Z,-0.70
2019-03-20T01:38:47.479Z,-0.73
2019-03-20T01:41:17.817Z,-0.74
2019-03-20T01:43:48.145Z,-0.83
2019-03-20T01:46:19.322Z,-0.80
2019-03-20T01:48:50.225Z,-0.83
2019-03-20T01:51:21.818Z,-0.86
2019-03-20T01:53:52.340Z,-0.91
2019-03-20T01:56:22.790Z,-0.91
2019-03-20T01:58:53.115Z,-0.83
2019-03-20T02:01:23.469Z,-0.79
2019-03-20T02:03:54.014Z,-0.83
2019-03-20T02:06:24.362Z,-0.92
2019-03-20T02:08:54.694Z,-0.93
2019-03-20T02:11:25.096Z,-0.92
2019-03-20T02:13:55.381Z,-0.92
2019-03-20T02:16:25.745Z,-0.92
2019-03-20T02:18:56.068Z,-0.89
2019-03-20T02:21:26.816Z,-0.84
2019-03-20T02:23:57.149Z,-0.84
2019-03-20T02:26:27.497Z,-0.85
2019-03-20T02:28:57.830Z,-0.87
2019-03-20T02:31:28.184Z,-0.82
2019-03-20T02:33:58.517Z,-0.83
2019-03-20T02:36:28.866Z,-0.85
2019-03-20T02:38:59.301Z,-0.86
2019-03-20T02:41:31.059Z,-0.88
2019-03-20T02:44:02.559Z,-0.88
2019-03-20T02:46:32.919Z,-0.84
2019-03-20T02:49:05.398Z,-0.84
2019-03-20T02:51:35.946Z,-0.89
2019-03-20T02:54:06.279Z,-0.90
2019-03-20T02:56:36.632Z,-0.94
2019-03-20T02:59:07.041Z,-0.96
2019-03-20T03:01:37.406Z,-0.98
2019-03-20T03:04:07.728Z,-0.99
2019-03-20T03:06:38.079Z,-1.05
2019-03-20T03:09:08.579Z,-1.09
2019-03-20T03:11:38.927Z,-1.13
2019-03-20T03:14:09.259Z,-1.13
2019-03-20T03:16:39.610Z,-1.09
2019-03-20T03:19:09.935Z,-1.04
2019-03-20T03:21:40.288Z,-1.06
2019-03-20T03:24:10.622Z,-1.01
2019-03-20T03:26:40.964Z,-0.99
2019-03-20T03:29:11.293Z,-0.97
2019-03-20T03:31:41.662Z,-1.00
2019-03-20T03:34:11.989Z,-0.98
2019-03-20T03:36:42.439Z,-0.94
2019-03-20T03:39:12.985Z,-0.92
2019-03-20T03:41:43.337Z,-0.94
2019-03-20T03:44:13.664Z,-0.99
2019-03-20T03:46:44.227Z,-1.03
2019-03-20T03:49:15.649Z,-1.05
2019-03-20T03:51:46.202Z,-1.09
2019-03-20T03:54:16.542Z,-1.12
2019-03-20T03:56:46.899Z,-1.21
2019-03-20T03:59:17.237Z,-1.19
2019-03-20T04:01:47.581Z,-1.24
2019-03-20T04:04:17.925Z,-1.18
2019-03-20T04:06:48.257Z,-1.18
2019-03-20T04:09:18.625Z,-1.24
2019-03-20T04:11:48.942Z,-1.25
2019-03-20T04:14:19.306Z,-1.29
2019-03-20T04:16:49.637Z,-1.35
2019-03-20T04:19:20.171Z,-1.41
2019-03-20T04:21:50.525Z,-1.41
2019-03-20T04:24:20.851Z,-1.43
2019-03-20T04:26:51.205Z,-1.39
2019-03-20T04:29:21.550Z,-1.33
2019-03-20T04:31:51.892Z,-1.30
2019-03-20T04:34:22.231Z,-1.27
2019-03-20T04:36:52.585Z,-1.25
2019-03-20T04:39:22.918Z,-1.23
2019-03-20T04:41:53.285Z,-1.25
2019-03-20T04:44:23.618Z,-1.25
2019-03-20T04:46:53.902Z,-1.27
2019-03-20T04:49:25.289Z,-1.33
2019-03-20T04:51:55.644Z,-1.35
2019-03-20T04:54:25.972Z,-1.31
2019-03-20T04:56:56.326Z,-1.32
2019-03-20T04:59:26.666Z,-1.32
2019-03-20T05:01:57.156Z,-1.25
2019-03-20T05:04:28.311Z,-1.18
2019-03-20T05:07:01.164Z,-1.14
2019-03-20T05:09:31.673Z,-1.14
2019-03-20T05:12:03.153Z,-1.12
2019-03-20T05:14:33.653Z,-1.13
2019-03-20T05:17:04.229Z,-1.07
2019-03-20T05:19:34.549Z,-0.96
2019-03-20T05:22:06.214Z,-0.83
2019-03-20T05:24:36.699Z,-0.74
2019-03-20T05:27:08.510Z,-0.66
2019-03-20T05:29:39.970Z,-0.68
2019-03-20T05:32:10.976Z,-0.62
2019-03-20T05:34:44.808Z,-0.55
2019-03-20T05:37:16.438Z,-0.34
2019-03-20T05:39:49.304Z,-0.30
2019-03-20T05:42:19.657Z,-0.19
2019-03-20T05:44:49.992Z,0.05
2019-03-20T05:47:20.415Z,0.23
2019-03-20T05:49:50.916Z,0.43
2019-03-20T05:52:21.471Z,0.66
2019-03-20T05:54:51.807Z,0.83
2019-03-20T05:57:22.195Z,1.03
2019-03-20T05:59:52.529Z,5.59
2019-03-20T06:02:25.644Z,5.59
2019-03-20T06:04:55.312Z,7.43
2019-03-20T06:07:25.669Z,8.94
2019-03-20T06:09:57.632Z,10.14
2019-03-20T06:12:27.986Z,11.10
2019-03-20T06:14:58.371Z,12.09
2019-03-20T06:17:28.936Z,12.77
2019-03-20T06:19:59.587Z,13.21
2019-03-20T06:22:30.635Z,13.49
2019-03-20T06:25:00.979Z,14.01
2019-03-20T06:27:31.329Z,14.02
2019-03-20T06:30:04.450Z,14.20
2019-03-20T06:32:34.891Z,14.61
2019-03-20T06:35:07.275Z,15.29
2019-03-20T06:37:38.589Z,15.19
2019-03-20T06:40:11.922Z,15.72
2019-03-20T06:42:42.261Z,15.90
2019-03-20T06:45:19.214Z,16.03
2019-03-20T06:47:49.550Z,16.59
2019-03-20T06:50:22.819Z,16.94
2019-03-20T06:52:53.173Z,17.32
2019-03-20T06:55:23.805Z,17.59
2019-03-20T06:57:54.157Z,17.64
2019-03-20T07:00:49.009Z,17.88
2019-03-20T07:03:22.627Z,18.21
2019-03-20T07:06:11.044Z,18.36
2019-03-20T07:08:44.651Z,18.37
2019-03-20T07:11:14.620Z,18.38
2019-03-20T07:13:44.980Z,17.83
2019-03-20T07:16:15.312Z,18.74
2019-03-20T07:18:45.863Z,17.88
2019-03-20T07:21:18.632Z,17.46
2019-03-20T07:23:48.452Z,17.74
2019-03-20T07:26:18.781Z,17.74
2019-03-20T07:28:49.163Z,17.99
2019-03-20T07:31:19.501Z,18.92
2019-03-20T07:33:49.853Z,18.56
2019-03-20T07:36:20.181Z,18.61
2019-03-20T07:38:50.533Z,18.27
2019-03-20T07:41:20.873Z,18.15
2019-03-20T07:43:51.228Z,17.98
2019-03-20T07:46:21.663Z,17.99
2019-03-20T07:48:52.030Z,17.65
2019-03-20T07:51:22.461Z,18.80
2019-03-20T07:53:52.915Z,17.82
2019-03-20T07:56:23.249Z,18.66
2019-03-20T07:58:53.605Z,19.21
2019-03-20T08:01:24.246Z,18.57
2019-03-20T08:03:54.613Z,18.92
2019-03-20T08:06:24.942Z,19.50
2019-03-20T08:08:55.296Z,19.50
2019-03-20T08:11:25.735Z,19.71
2019-03-20T08:13:57.548Z,20.14
2019-03-20T08:16:27.980Z,20.58
2019-03-20T08:18:58.555Z,19.69
2019-03-20T08:21:28.881Z,19.09
2019-03-20T08:23:59.345Z,18.87
2019-03-20T08:26:29.876Z,19.22
2019-03-20T08:29:00.429Z,19.30
2019-03-20T08:31:30.774Z,18.97
2019-03-20T08:34:01.115Z,19.30
2019-03-20T08:36:31.456Z,19.01
2019-03-20T08:39:01.805Z,19.14
2019-03-20T08:41:33.935Z,18.88
2019-03-20T08:44:04.306Z,19.50
2019-03-20T08:46:34.637Z,18.36
2019-03-20T08:49:05.230Z,16.20
2019-03-20T08:51:36.332Z,14.96
2019-03-20T08:54:06.904Z,13.62
2019-03-20T08:56:37.615Z,13.16
2019-03-20T08:59:07.959Z,12.78
2019-03-20T09:01:38.298Z,12.26
2019-03-20T09:04:08.726Z,11.79
2019-03-20T09:06:39.557Z,11.69
2019-03-20T09:09:09.915Z,11.45
2019-03-20T09:11:40.245Z,11.58
2019-03-20T09:14:10.570Z,11.08
2019-03-20T09:16:40.946Z,10.34
2019-03-20T09:19:11.293Z,10.79
2019-03-20T09:21:41.623Z,10.48
2019-03-20T09:24:13.712Z,10.47
2019-03-20T09:26:44.061Z,10.61
2019-03-20T09:29:18.813Z,10.54
2019-03-20T09:31:46.688Z,10.67
2019-03-20T09:34:17.011Z,10.06
2019-03-20T09:36:47.418Z,10.05
2019-03-20T09:39:17.952Z,9.89
2019-03-20T09:41:48.305Z,9.87
2019-03-20T09:44:18.631Z,9.97
2019-03-20T09:46:48.974Z,10.08
2019-03-20T09:49:19.324Z,10.13
2019-03-20T09:51:50.592Z,10.22
2019-03-20T09:54:20.932Z,10.76
2019-03-20T09:56:51.273Z,10.99
2019-03-20T09:59:21.604Z,11.21
2019-03-20T10:01:51.959Z,11.18
2019-03-20T10:04:22.295Z,11.15
2019-03-20T10:06:52.630Z,10.81
2019-03-20T10:09:22.963Z,11.06
2019-03-20T10:11:53.306Z,11.15
2019-03-20T10:14:23.650Z,11.33
2019-03-20T10:16:55.258Z,11.27
2019-03-20T10:19:25.789Z,11.44
2019-03-20T10:21:56.336Z,11.54
2019-03-20T10:24:26.657Z,11.72
2019-03-20T10:26:58.163Z,11.76
2019-03-20T10:29:28.486Z,11.61
2019-03-20T10:31:58.849Z,11.46
2019-03-20T10:34:39.009Z,11.73
2019-03-20T10:37:01.327Z,11.57
2019-03-20T10:39:33.713Z,11.42
2019-03-20T10:42:06.151Z,11.47
2019-03-20T10:44:41.223Z,11.20
2019-03-20T10:47:11.975Z,11.48
2019-03-20T10:49:44.450Z,11.30
2019-03-20T10:52:16.027Z,11.68
2019-03-20T10:54:47.661Z,11.77
2019-03-20T10:57:23.942Z,11.54
2019-03-20T11:00:01.602Z,11.62
2019-03-20T11:02:34.913Z,11.33
2019-03-20T11:05:07.073Z,11.13
2019-03-20T11:07:37.504Z,10.83
2019-03-20T11:10:11.225Z,11.04
2019-03-20T11:12:41.980Z,11.28
2019-03-20T11:15:14.749Z,11.48
2019-03-20T11:17:47.334Z,11.70
2019-03-20T11:20:18.871Z,11.17
2019-03-20T11:22:49.966Z,11.24
2019-03-20T11:25:31.312Z,11.22
2019-03-20T11:28:01.707Z,11.48
2019-03-20T11:30:34.496Z,11.31
2019-03-20T11:33:06.381Z,11.51
2019-03-20T11:35:45.487Z,11.12
2019-03-20T11:38:16.435Z,11.13
2019-03-20T11:40:51.227Z,11.49
2019-03-20T11:43:25.941Z,11.88
2019-03-20T11:45:58.454Z,12.04
2019-03-20T11:48:28.983Z,11.67
2019-03-20T11:51:02.444Z,11.78
2019-03-20T11:53:35.557Z,11.53
2019-03-20T11:56:08.654Z,11.78
2019-03-20T11:58:42.129Z,11.91
2019-03-20T12:01:22.507Z,12.07
2019-03-20T12:03:53.099Z,11.98
2019-03-20T12:06:28.186Z,11.68
2019-03-20T12:08:58.714Z,11.91
2019-03-20T12:11:45.175Z,11.85
2019-03-20T12:14:14.431Z,11.62
2019-03-20T12:16:48.509Z,11.83
2019-03-20T12:19:18.973Z,11.73
2019-03-20T12:21:53.030Z,12.04
2019-03-20T12:24:27.391Z,11.92
2019-03-20T12:26:57.965Z,12.04
2019-03-20T12:29:30.317Z,12.37
2019-03-20T12:32:07.368Z,12.05
2019-03-20T12:34:39.641Z,12.14
2019-03-20T12:37:10.179Z,12.31
2019-03-20T12:39:52.812Z,12.20
2019-03-20T12:42:19.661Z,12.27
2019-03-20T12:44:50.053Z,11.87
2019-03-20T12:47:20.591Z,11.88
2019-03-20T12:49:53.834Z,12.10
2019-03-20T12:52:29.319Z,12.06
2019-03-20T12:54:59.885Z,12.26
2019-03-20T12:57:30.405Z,12.27
2019-03-20T13:00:00.955Z,12.46
2019-03-20T13:02:32.996Z,12.55
2019-03-20T13:05:06.357Z,12.50
2019-03-20T13:07:39.440Z,12.37
2019-03-20T13:10:17.559Z,12.36
2019-03-20T13:12:48.959Z,12.43
2019-03-20T13:15:25.754Z,12.35
2019-03-20T13:17:57.974Z,11.99
2019-03-20T13:20:29.265Z,11.93
2019-03-20T13:23:20.687Z,11.94
2019-03-20T13:25:51.072Z,12.01
2019-03-20T13:28:21.409Z,12.31
2019-03-20T13:31:12.534Z,12.48
2019-03-20T13:33:43.070Z,12.52
2019-03-20T13:36:13.404Z,12.32
2019-03-20T13:38:43.996Z,12.11
2019-03-20T13:41:14.329Z,12.22
2019-03-20T13:43:44.646Z,12.30
2019-03-20T13:46:14.971Z,12.22
2019-03-20T13:48:45.498Z,12.12
2019-03-20T13:51:16.214Z,12.13
2019-03-20T13:53:46.656Z,11.93
2019-03-20T13:56:17.098Z,12.11
2019-03-20T13:58:47.429Z,12.28
2019-03-20T14:01:17.839Z,12.31
2019-03-20T14:03:48.396Z,12.09
2019-03-20T14:06:21.026Z,12.14
2019-03-20T14:09:06.570Z,12.08
2019-03-20T14:11:38.125Z,12.04
2019-03-20T14:14:10.157Z,11.92
2019-03-20T14:16:46.229Z,11.91
2019-03-20T14:19:18.879Z,11.95
2019-03-20T14:21:51.031Z,11.93
2019-03-20T14:24:23.057Z,11.92
2019-03-20T14:26:53.575Z,11.98
2019-03-20T14:29:29.762Z,12.12
2019-03-20T14:32:01.993Z,12.02
2019-03-20T14:34:34.964Z,12.07
2019-03-20T14:37:09.127Z,11.87
2019-03-20T14:39:48.619Z,11.81
2019-03-20T14:42:19.177Z,11.80
2019-03-20T14:44:51.679Z,11.68
2019-03-20T14:47:41.888Z,11.68
2019-03-20T14:50:10.516Z,11.64
2019-03-20T14:52:43.927Z,11.58
2019-03-20T14:55:15.149Z,11.62
2019-03-20T14:57:45.675Z,11.53
2019-03-20T15:00:20.949Z,11.32
2019-03-20T15:02:51.976Z,11.45
2019-03-20T15:05:21.882Z,11.48
2019-03-20T15:07:55.690Z,11.40
2019-03-20T15:10:27.049Z,11.42
2019-03-20T15:12:58.220Z,11.33
2019-03-20T15:15:45.030Z,11.31
2019-03-20T15:18:15.405Z,11.23
2019-03-20T15:20:47.212Z,11.26
2019-03-20T15:23:19.235Z,11.35
2019-03-20T15:25:49.784Z,11.28
2019-03-20T15:28:20.295Z,11.32
2019-03-20T15:30:50.830Z,11.31
2019-03-20T15:33:21.390Z,11.34
2019-03-20T15:35:54.447Z,11.33
2019-03-20T15:38:27.066Z,11.39
2019-03-20T15:40:59.252Z,11.24
2019-03-20T15:43:34.601Z,11.23
2019-03-20T15:46:09.283Z,11.00
2019-03-20T15:48:47.501Z,11.06
2019-03-20T15:51:28.268Z,11.13
2019-03-20T15:53:58.855Z,11.06
2019-03-20T15:56:29.313Z,11.08
2019-03-20T15:58:59.875Z,11.08
2019-03-20T16:01:31.630Z,11.09
2019-03-20T16:04:02.593Z,10.99
2019-03-20T16:06:34.193Z,10.94
2019-03-20T16:09:07.640Z,10.94
2019-03-20T16:11:38.033Z,10.92
2019-03-20T16:14:08.884Z,10.89
2019-03-20T16:16:39.408Z,10.80
2019-03-20T16:19:09.912Z,10.72
2019-03-20T16:21:41.368Z,10.62
2019-03-20T16:24:11.898Z,10.58
2019-03-20T16:26:42.732Z,10.56
2019-03-20T16:29:13.370Z,10.48
2019-03-20T16:31:44.419Z,10.34
2019-03-20T16:34:15.996Z,10.29
2019-03-20T16:36:46.396Z,10.22
2019-03-20T16:39:17.884Z,10.09
2019-03-20T16:42:13.587Z,10.00
2019-03-20T16:44:46.634Z,9.89
2019-03-20T16:47:17.105Z,9.77
2019-03-20T16:49:47.627Z,9.65
2019-03-20T16:52:18.147Z,9.53
2019-03-20T16:54:48.652Z,9.43
2019-03-20T16:57:24.065Z,9.37
2019-03-20T17:00:03.037Z,9.20
2019-03-20T17:03:11.977Z,9.15
2019-03-20T17:05:46.500Z,9.02
2019-03-20T17:08:26.987Z,8.93
2019-03-20T17:10:58.865Z,8.86
2019-03-20T17:13:31.030Z,8.81
2019-03-20T17:16:11.229Z,8.75
2019-03-20T17:18:41.999Z,8.70
2019-03-20T17:21:20.287Z,8.65
2019-03-20T17:24:07.509Z,8.64
2019-03-20T17:26:38.134Z,8.63
2019-03-20T17:29:09.504Z,8.54
2019-03-20T17:31:41.099Z,8.60
2019-03-20T17:34:20.590Z,8.60
2019-03-20T17:36:59.631Z,8.66
2019-03-20T17:39:31.167Z,8.69
2019-03-20T17:42:02.618Z,8.75
2019-03-20T17:44:33.152Z,8.82
2019-03-20T17:47:08.126Z,8.86
2019-03-20T17:49:38.557Z,8.92
2019-03-20T17:52:09.048Z,8.99
2019-03-20T17:54:40.169Z,9.01
2019-03-20T17:57:15.490Z,9.07
2019-03-20T17:59:49.703Z,9.10
2019-03-20T18:02:24.358Z,9.10
2019-03-20T18:04:53.681Z,9.06
2019-03-20T19:24:37.097Z,18.46
